sensor_id;sensor_type;location;lat;lon;timestamp;P1;durP1;ratioP1;P2;durP2;ratioP2
15114;SDS011;7658;51.456;7.622;2023-12-20T00:01:05;67.80;;;33.43;;
15114;SDS011;7658;51.456;7.622;2023-12-20T00:03:31;70.67;;;33.10;;
15114;SDS011;7658;51.456;7.622;2023-12-20T00:05:56;67.93;;;33.47;;
15114;SDS011;7658;51.456;7.622;2023-12-20T00:08:22;67.17;;;32.43;;
15114;SDS011;7658;51.456;7.622;2023-12-20T00:10:48;58.23;;;28.77;;
15114;SDS011;7658;51.456;7.622;2023-12-20T00:13:14;64.70;;;31.03;;
15114;SDS011;7658;51.456;7.622;2023-12-20T00:15:40;63.53;;;29.93;;
15114;SDS011;7658;51.456;7.622;2023-12-20T00:18:05;59.67;;;29.97;;
15114;SDS011;7658;51.456;7.622;2023-12-20T00:20:32;65.13;;;28.73;;
15114;SDS011;7658;51.456;7.622;2023-12-20T00:22:57;61.90;;;29.77;;
15114;SDS011;7658;51.456;7.622;2023-12-20T00:25:23;60.93;;;28.87;;
15114;SDS011;7658;51.456;7.622;2023-12-20T00:27:49;63.53;;;30.50;;
15114;SDS011;7658;51.456;7.622;2023-12-20T00:30:15;64.87;;;30.00;;
15114;SDS011;7658;51.456;7.622;2023-12-20T00:32:41;62.07;;;30.17;;
15114;SDS011;7658;51.456;7.622;2023-12-20T00:35:13;65.20;;;31.17;;
15114;SDS011;7658;51.456;7.622;2023-12-20T00:37:39;62.13;;;29.97;;
15114;SDS011;7658;51.456;7.622;2023-12-20T00:40:05;66.80;;;30.93;;
15114;SDS011;7658;51.456;7.622;2023-12-20T00:42:31;64.97;;;28.93;;
15114;SDS011;7658;51.456;7.622;2023-12-20T00:44:58;64.40;;;30.30;;
15114;SDS011;7658;51.456;7.622;2023-12-20T00:47:24;63.20;;;27.13;;
15114;SDS011;7658;51.456;7.622;2023-12-20T00:49:50;59.50;;;29.47;;
15114;SDS011;7658;51.456;7.622;2023-12-20T00:52:16;59.27;;;29.17;;
15114;SDS011;7658;51.456;7.622;2023-12-20T00:54:43;51.63;;;27.10;;
15114;SDS011;7658;51.456;7.622;2023-12-20T00:57:09;58.60;;;27.50;;
15114;SDS011;7658;51.456;7.622;2023-12-20T00:59:34;57.70;;;28.47;;
15114;SDS011;7658;51.456;7.622;2023-12-20T01:02:00;57.77;;;27.63;;
15114;SDS011;7658;51.456;7.622;2023-12-20T01:04:27;57.07;;;26.93;;
15114;SDS011;7658;51.456;7.622;2023-12-20T01:06:52;41.00;;;22.27;;
15114;SDS011;7658;51.456;7.622;2023-12-20T01:09:18;39.20;;;21.23;;
15114;SDS011;7658;51.456;7.622;2023-12-20T01:11:44;42.60;;;20.50;;
15114;SDS011;7658;51.456;7.622;2023-12-20T01:14:13;43.23;;;19.07;;
15114;SDS011;7658;51.456;7.622;2023-12-20T01:16:39;41.30;;;20.87;;
15114;SDS011;7658;51.456;7.622;2023-12-20T01:19:05;30.80;;;16.90;;
15114;SDS011;7658;51.456;7.622;2023-12-20T01:21:31;33.87;;;16.63;;
15114;SDS011;7658;51.456;7.622;2023-12-20T01:23:57;26.30;;;14.57;;
15114;SDS011;7658;51.456;7.622;2023-12-20T01:26:23;25.20;;;13.00;;
15114;SDS011;7658;51.456;7.622;2023-12-20T01:28:49;23.93;;;13.20;;
15114;SDS011;7658;51.456;7.622;2023-12-20T01:31:14;24.40;;;13.80;;
15114;SDS011;7658;51.456;7.622;2023-12-20T01:33:40;26.10;;;12.80;;
15114;SDS011;7658;51.456;7.622;2023-12-20T01:36:06;22.63;;;12.20;;
15114;SDS011;7658;51.456;7.622;2023-12-20T01:38:32;22.67;;;12.10;;
15114;SDS011;7658;51.456;7.622;2023-12-20T01:40:57;22.20;;;12.27;;
15114;SDS011;7658;51.456;7.622;2023-12-20T01:43:24;22.67;;;12.20;;
15114;SDS011;7658;51.456;7.622;2023-12-20T01:45:50;21.13;;;11.60;;
15114;SDS011;7658;51.456;7.622;2023-12-20T01:48:16;22.40;;;12.00;;
15114;SDS011;7658;51.456;7.622;2023-12-20T01:50:43;31.37;;;12.20;;
15114;SDS011;7658;51.456;7.622;2023-12-20T01:53:10;17.63;;;10.67;;
15114;SDS011;7658;51.456;7.622;2023-12-20T01:55:39;20.03;;;11.23;;
15114;SDS011;7658;51.456;7.622;2023-12-20T01:58:08;19.73;;;11.03;;
15114;SDS011;7658;51.456;7.622;2023-12-20T02:00:36;18.03;;;10.70;;
15114;SDS011;7658;51.456;7.622;2023-12-20T02:03:02;23.33;;;11.53;;
15114;SDS011;7658;51.456;7.622;2023-12-20T02:05:31;19.80;;;11.67;;
15114;SDS011;7658;51.456;7.622;2023-12-20T02:07:59;25.20;;;11.97;;
15114;SDS011;7658;51.456;7.622;2023-12-20T02:10:25;23.27;;;12.07;;
15114;SDS011;7658;51.456;7.622;2023-12-20T02:12:51;16.27;;;10.73;;
15114;SDS011;7658;51.456;7.622;2023-12-20T02:15:17;24.17;;;12.07;;
15114;SDS011;7658;51.456;7.622;2023-12-20T02:17:43;17.13;;;11.60;;
15114;SDS011;7658;51.456;7.622;2023-12-20T02:20:10;20.10;;;11.03;;
15114;SDS011;7658;51.456;7.622;2023-12-20T02:22:36;20.10;;;11.83;;
15114;SDS011;7658;51.456;7.622;2023-12-20T02:25:02;24.10;;;11.77;;
15114;SDS011;7658;51.456;7.622;2023-12-20T02:27:28;17.53;;;10.67;;
15114;SDS011;7658;51.456;7.622;2023-12-20T02:29:54;18.23;;;11.17;;
15114;SDS011;7658;51.456;7.622;2023-12-20T02:32:21;18.43;;;12.40;;
15114;SDS011;7658;51.456;7.622;2023-12-20T02:34:48;17.37;;;11.50;;
15114;SDS011;7658;51.456;7.622;2023-12-20T02:37:14;19.77;;;11.10;;
15114;SDS011;7658;51.456;7.622;2023-12-20T02:39:40;16.87;;;10.40;;
15114;SDS011;7658;51.456;7.622;2023-12-20T02:42:05;28.97;;;12.37;;
15114;SDS011;7658;51.456;7.622;2023-12-20T02:44:31;20.17;;;10.73;;
15114;SDS011;7658;51.456;7.622;2023-12-20T02:46:57;14.70;;;10.57;;
15114;SDS011;7658;51.456;7.622;2023-12-20T02:49:23;14.40;;;9.33;;
15114;SDS011;7658;51.456;7.622;2023-12-20T02:51:48;24.10;;;10.53;;
15114;SDS011;7658;51.456;7.622;2023-12-20T02:54:14;17.43;;;10.17;;
15114;SDS011;7658;51.456;7.622;2023-12-20T02:56:40;22.23;;;9.37;;
15114;SDS011;7658;51.456;7.622;2023-12-20T02:59:06;13.73;;;9.20;;
15114;SDS011;7658;51.456;7.622;2023-12-20T03:01:33;12.57;;;8.23;;
15114;SDS011;7658;51.456;7.622;2023-12-20T03:04:00;15.93;;;9.57;;
15114;SDS011;7658;51.456;7.622;2023-12-20T03:06:26;20.33;;;9.17;;
15114;SDS011;7658;51.456;7.622;2023-12-20T03:08:52;17.57;;;9.37;;
15114;SDS011;7658;51.456;7.622;2023-12-20T03:11:17;19.40;;;8.23;;
15114;SDS011;7658;51.456;7.622;2023-12-20T03:13:43;17.87;;;9.23;;
15114;SDS011;7658;51.456;7.622;2023-12-20T03:16:09;19.77;;;9.27;;
15114;SDS011;7658;51.456;7.622;2023-12-20T03:18:36;18.90;;;10.00;;
15114;SDS011;7658;51.456;7.622;2023-12-20T03:21:02;16.33;;;10.50;;
15114;SDS011;7658;51.456;7.622;2023-12-20T03:23:29;19.13;;;10.20;;
15114;SDS011;7658;51.456;7.622;2023-12-20T03:25:55;18.60;;;10.53;;
15114;SDS011;7658;51.456;7.622;2023-12-20T03:28:22;21.10;;;12.57;;
15114;SDS011;7658;51.456;7.622;2023-12-20T03:30:50;30.60;;;12.50;;
15114;SDS011;7658;51.456;7.622;2023-12-20T03:33:16;26.37;;;12.40;;
15114;SDS011;7658;51.456;7.622;2023-12-20T03:35:42;20.23;;;12.23;;
15114;SDS011;7658;51.456;7.622;2023-12-20T03:38:08;24.77;;;12.30;;
15114;SDS011;7658;51.456;7.622;2023-12-20T03:40:34;18.37;;;11.17;;
15114;SDS011;7658;51.456;7.622;2023-12-20T03:43:00;15.37;;;11.20;;
15114;SDS011;7658;51.456;7.622;2023-12-20T03:45:26;21.10;;;11.87;;
15114;SDS011;7658;51.456;7.622;2023-12-20T03:47:51;19.90;;;11.67;;
15114;SDS011;7658;51.456;7.622;2023-12-20T03:50:24;19.33;;;11.27;;
15114;SDS011;7658;51.456;7.622;2023-12-20T03:52:51;18.63;;;12.93;;
15114;SDS011;7658;51.456;7.622;2023-12-20T03:55:16;20.30;;;12.10;;
15114;SDS011;7658;51.456;7.622;2023-12-20T03:57:42;22.17;;;11.27;;
15114;SDS011;7658;51.456;7.622;2023-12-20T04:00:08;20.40;;;11.27;;
15114;SDS011;7658;51.456;7.622;2023-12-20T04:02:36;24.57;;;11.50;;
15114;SDS011;7658;51.456;7.622;2023-12-20T04:05:05;15.93;;;11.17;;
15114;SDS011;7658;51.456;7.622;2023-12-20T04:07:31;18.30;;;11.10;;
15114;SDS011;7658;51.456;7.622;2023-12-20T04:09:57;20.30;;;11.57;;
15114;SDS011;7658;51.456;7.622;2023-12-20T04:12:23;19.40;;;11.27;;
15114;SDS011;7658;51.456;7.622;2023-12-20T04:14:49;23.10;;;11.23;;
15114;SDS011;7658;51.456;7.622;2023-12-20T04:17:15;22.73;;;10.97;;
15114;SDS011;7658;51.456;7.622;2023-12-20T04:19:42;19.97;;;11.63;;
15114;SDS011;7658;51.456;7.622;2023-12-20T04:22:08;20.07;;;10.93;;
15114;SDS011;7658;51.456;7.622;2023-12-20T04:24:34;18.37;;;10.33;;
15114;SDS011;7658;51.456;7.622;2023-12-20T04:27:00;21.23;;;10.60;;
15114;SDS011;7658;51.456;7.622;2023-12-20T04:29:27;23.70;;;10.50;;
15114;SDS011;7658;51.456;7.622;2023-12-20T04:31:52;18.67;;;10.33;;
15114;SDS011;7658;51.456;7.622;2023-12-20T04:34:18;21.27;;;10.97;;
15114;SDS011;7658;51.456;7.622;2023-12-20T04:36:44;20.27;;;10.10;;
15114;SDS011;7658;51.456;7.622;2023-12-20T04:39:11;23.70;;;10.17;;
15114;SDS011;7658;51.456;7.622;2023-12-20T04:41:38;18.83;;;10.07;;
15114;SDS011;7658;51.456;7.622;2023-12-20T04:44:04;19.77;;;9.87;;
15114;SDS011;7658;51.456;7.622;2023-12-20T04:46:31;20.30;;;10.00;;
15114;SDS011;7658;51.456;7.622;2023-12-20T04:48:57;17.83;;;11.63;;
15114;SDS011;7658;51.456;7.622;2023-12-20T04:51:23;32.67;;;11.73;;
15114;SDS011;7658;51.456;7.622;2023-12-20T04:53:49;23.93;;;10.87;;
15114;SDS011;7658;51.456;7.622;2023-12-20T04:56:14;22.27;;;12.07;;
15114;SDS011;7658;51.456;7.622;2023-12-20T04:58:41;24.80;;;12.13;;
15114;SDS011;7658;51.456;7.622;2023-12-20T05:01:08;24.63;;;11.90;;
15114;SDS011;7658;51.456;7.622;2023-12-20T05:03:34;25.43;;;12.13;;
15114;SDS011;7658;51.456;7.622;2023-12-20T05:06:00;19.77;;;12.30;;
15114;SDS011;7658;51.456;7.622;2023-12-20T05:08:26;21.53;;;12.63;;
15114;SDS011;7658;51.456;7.622;2023-12-20T05:10:53;23.80;;;13.27;;
15114;SDS011;7658;51.456;7.622;2023-12-20T05:13:20;28.63;;;11.63;;
15114;SDS011;7658;51.456;7.622;2023-12-20T05:15:46;22.63;;;12.90;;
15114;SDS011;7658;51.456;7.622;2023-12-20T05:18:12;27.57;;;13.27;;
15114;SDS011;7658;51.456;7.622;2023-12-20T05:20:38;23.43;;;12.63;;
15114;SDS011;7658;51.456;7.622;2023-12-20T05:23:04;27.87;;;13.40;;
15114;SDS011;7658;51.456;7.622;2023-12-20T05:25:30;20.40;;;12.40;;
15114;SDS011;7658;51.456;7.622;2023-12-20T05:27:56;26.53;;;12.20;;
15114;SDS011;7658;51.456;7.622;2023-12-20T05:30:22;26.70;;;13.97;;
15114;SDS011;7658;51.456;7.622;2023-12-20T05:32:47;19.20;;;12.27;;
15114;SDS011;7658;51.456;7.622;2023-12-20T05:35:14;27.20;;;12.83;;
15114;SDS011;7658;51.456;7.622;2023-12-20T05:37:41;20.13;;;12.47;;
15114;SDS011;7658;51.456;7.622;2023-12-20T05:40:07;19.80;;;12.03;;
15114;SDS011;7658;51.456;7.622;2023-12-20T05:42:36;23.00;;;11.93;;
15114;SDS011;7658;51.456;7.622;2023-12-20T05:45:05;25.00;;;12.70;;
15114;SDS011;7658;51.456;7.622;2023-12-20T05:47:31;23.47;;;12.97;;
15114;SDS011;7658;51.456;7.622;2023-12-20T05:49:57;21.73;;;12.57;;
15114;SDS011;7658;51.456;7.622;2023-12-20T05:52:23;21.90;;;12.27;;
15114;SDS011;7658;51.456;7.622;2023-12-20T05:54:49;23.97;;;11.90;;
15114;SDS011;7658;51.456;7.622;2023-12-20T05:57:15;25.97;;;13.47;;
15114;SDS011;7658;51.456;7.622;2023-12-20T05:59:40;20.50;;;13.80;;
15114;SDS011;7658;51.456;7.622;2023-12-20T06:02:06;29.57;;;12.77;;
15114;SDS011;7658;51.456;7.622;2023-12-20T06:04:32;23.20;;;12.27;;
15114;SDS011;7658;51.456;7.622;2023-12-20T06:06:58;26.87;;;13.13;;
15114;SDS011;7658;51.456;7.622;2023-12-20T06:09:24;30.07;;;12.57;;
15114;SDS011;7658;51.456;7.622;2023-12-20T06:11:52;21.67;;;12.90;;
15114;SDS011;7658;51.456;7.622;2023-12-20T06:14:17;26.83;;;12.43;;
15114;SDS011;7658;51.456;7.622;2023-12-20T06:16:44;27.30;;;12.80;;
15114;SDS011;7658;51.456;7.622;2023-12-20T06:19:10;22.50;;;12.97;;
15114;SDS011;7658;51.456;7.622;2023-12-20T06:21:36;24.80;;;12.67;;
15114;SDS011;7658;51.456;7.622;2023-12-20T06:24:02;19.50;;;11.90;;
15114;SDS011;7658;51.456;7.622;2023-12-20T06:26:28;30.33;;;14.23;;
15114;SDS011;7658;51.456;7.622;2023-12-20T06:28:54;28.03;;;12.70;;
15114;SDS011;7658;51.456;7.622;2023-12-20T06:31:20;18.90;;;12.47;;
15114;SDS011;7658;51.456;7.622;2023-12-20T06:33:46;28.07;;;12.37;;
15114;SDS011;7658;51.456;7.622;2023-12-20T06:36:12;24.23;;;12.37;;
15114;SDS011;7658;51.456;7.622;2023-12-20T06:38:38;24.57;;;13.27;;
15114;SDS011;7658;51.456;7.622;2023-12-20T06:41:04;24.87;;;13.77;;
15114;SDS011;7658;51.456;7.622;2023-12-20T06:43:31;21.43;;;13.27;;
15114;SDS011;7658;51.456;7.622;2023-12-20T06:45:57;35.97;;;13.73;;
15114;SDS011;7658;51.456;7.622;2023-12-20T06:48:23;19.43;;;12.87;;
15114;SDS011;7658;51.456;7.622;2023-12-20T06:50:49;27.17;;;13.37;;
15114;SDS011;7658;51.456;7.622;2023-12-20T06:53:15;42.23;;;14.57;;
15114;SDS011;7658;51.456;7.622;2023-12-20T06:55:41;27.17;;;12.43;;
15114;SDS011;7658;51.456;7.622;2023-12-20T06:58:07;23.37;;;13.00;;
15114;SDS011;7658;51.456;7.622;2023-12-20T07:00:33;25.53;;;12.97;;
15114;SDS011;7658;51.456;7.622;2023-12-20T07:02:59;30.93;;;13.70;;
15114;SDS011;7658;51.456;7.622;2023-12-20T07:05:25;19.63;;;12.57;;
15114;SDS011;7658;51.456;7.622;2023-12-20T07:07:51;25.57;;;13.33;;
15114;SDS011;7658;51.456;7.622;2023-12-20T07:10:17;23.97;;;12.60;;
15114;SDS011;7658;51.456;7.622;2023-12-20T07:12:43;25.00;;;11.90;;
15114;SDS011;7658;51.456;7.622;2023-12-20T07:15:09;19.60;;;12.33;;
15114;SDS011;7658;51.456;7.622;2023-12-20T07:17:35;27.83;;;11.33;;
15114;SDS011;7658;51.456;7.622;2023-12-20T07:20:01;28.47;;;12.23;;
15114;SDS011;7658;51.456;7.622;2023-12-20T07:22:31;24.23;;;11.87;;
15114;SDS011;7658;51.456;7.622;2023-12-20T07:24:58;22.30;;;11.00;;
15114;SDS011;7658;51.456;7.622;2023-12-20T07:27:24;24.67;;;11.33;;
15114;SDS011;7658;51.456;7.622;2023-12-20T07:29:51;21.20;;;10.37;;
15114;SDS011;7658;51.456;7.622;2023-12-20T07:32:17;21.23;;;11.00;;
15114;SDS011;7658;51.456;7.622;2023-12-20T07:34:43;18.97;;;10.93;;
15114;SDS011;7658;51.456;7.622;2023-12-20T07:37:08;18.40;;;10.73;;
15114;SDS011;7658;51.456;7.622;2023-12-20T07:39:37;23.00;;;10.50;;
15114;SDS011;7658;51.456;7.622;2023-12-20T07:42:05;23.07;;;10.67;;
15114;SDS011;7658;51.456;7.622;2023-12-20T07:44:31;18.60;;;9.97;;
15114;SDS011;7658;51.456;7.622;2023-12-20T07:46:56;19.70;;;10.93;;
15114;SDS011;7658;51.456;7.622;2023-12-20T07:49:23;27.07;;;11.10;;
15114;SDS011;7658;51.456;7.622;2023-12-20T07:51:49;27.03;;;10.40;;
15114;SDS011;7658;51.456;7.622;2023-12-20T07:54:15;17.60;;;10.47;;
15114;SDS011;7658;51.456;7.622;2023-12-20T07:56:41;18.13;;;10.23;;
15114;SDS011;7658;51.456;7.622;2023-12-20T07:59:07;20.37;;;11.00;;
15114;SDS011;7658;51.456;7.622;2023-12-20T08:01:33;21.10;;;10.17;;
15114;SDS011;7658;51.456;7.622;2023-12-20T08:03:58;20.93;;;10.07;;
15114;SDS011;7658;51.456;7.622;2023-12-20T08:06:24;26.00;;;10.97;;
15114;SDS011;7658;51.456;7.622;2023-12-20T08:08:50;25.73;;;10.70;;
15114;SDS011;7658;51.456;7.622;2023-12-20T08:11:16;15.90;;;9.50;;
15114;SDS011;7658;51.456;7.622;2023-12-20T08:13:42;25.13;;;11.57;;
15114;SDS011;7658;51.456;7.622;2023-12-20T08:16:08;23.60;;;10.80;;
15114;SDS011;7658;51.456;7.622;2023-12-20T08:18:34;20.13;;;10.13;;
15114;SDS011;7658;51.456;7.622;2023-12-20T08:21:00;21.20;;;9.37;;
15114;SDS011;7658;51.456;7.622;2023-12-20T08:23:26;29.43;;;10.70;;
15114;SDS011;7658;51.456;7.622;2023-12-20T08:25:52;25.23;;;11.27;;
15114;SDS011;7658;51.456;7.622;2023-12-20T08:28:18;23.37;;;10.70;;
15114;SDS011;7658;51.456;7.622;2023-12-20T08:30:44;27.27;;;10.73;;
15114;SDS011;7658;51.456;7.622;2023-12-20T08:33:10;18.57;;;10.33;;
15114;SDS011;7658;51.456;7.622;2023-12-20T08:35:38;19.97;;;11.33;;
15114;SDS011;7658;51.456;7.622;2023-12-20T08:38:05;24.33;;;12.03;;
15114;SDS011;7658;51.456;7.622;2023-12-20T08:40:31;20.70;;;10.37;;
15114;SDS011;7658;51.456;7.622;2023-12-20T08:42:57;17.50;;;10.53;;
15114;SDS011;7658;51.456;7.622;2023-12-20T08:45:23;27.63;;;10.73;;
15114;SDS011;7658;51.456;7.622;2023-12-20T08:47:49;20.93;;;10.97;;
15114;SDS011;7658;51.456;7.622;2023-12-20T08:50:15;26.40;;;10.73;;
15114;SDS011;7658;51.456;7.622;2023-12-20T08:52:41;20.27;;;10.77;;
15114;SDS011;7658;51.456;7.622;2023-12-20T08:55:07;18.37;;;10.27;;
15114;SDS011;7658;51.456;7.622;2023-12-20T08:57:35;24.33;;;12.27;;
15114;SDS011;7658;51.456;7.622;2023-12-20T09:00:01;17.40;;;11.20;;
15114;SDS011;7658;51.456;7.622;2023-12-20T09:02:28;26.47;;;11.40;;
15114;SDS011;7658;51.456;7.622;2023-12-20T09:04:54;20.47;;;11.40;;
15114;SDS011;7658;51.456;7.622;2023-12-20T09:07:24;23.23;;;10.73;;
15114;SDS011;7658;51.456;7.622;2023-12-20T09:09:51;20.80;;;10.27;;
15114;SDS011;7658;51.456;7.622;2023-12-20T09:12:20;23.60;;;11.53;;
15114;SDS011;7658;51.456;7.622;2023-12-20T09:14:46;18.83;;;11.03;;
15114;SDS011;7658;51.456;7.622;2023-12-20T09:17:13;19.47;;;10.87;;
15114;SDS011;7658;51.456;7.622;2023-12-20T09:19:39;19.63;;;12.13;;
15114;SDS011;7658;51.456;7.622;2023-12-20T09:22:05;27.03;;;10.37;;
15114;SDS011;7658;51.456;7.622;2023-12-20T09:24:31;20.73;;;11.73;;
15114;SDS011;7658;51.456;7.622;2023-12-20T09:26:57;19.97;;;10.27;;
15114;SDS011;7658;51.456;7.622;2023-12-20T09:29:23;17.43;;;10.23;;
15114;SDS011;7658;51.456;7.622;2023-12-20T09:31:49;17.07;;;10.53;;
15114;SDS011;7658;51.456;7.622;2023-12-20T09:34:16;21.80;;;10.03;;
15114;SDS011;7658;51.456;7.622;2023-12-20T09:36:44;24.70;;;11.23;;
15114;SDS011;7658;51.456;7.622;2023-12-20T09:39:15;23.67;;;11.33;;
15114;SDS011;7658;51.456;7.622;2023-12-20T09:41:59;21.13;;;9.77;;
15114;SDS011;7658;51.456;7.622;2023-12-20T09:44:27;26.73;;;11.57;;
15114;SDS011;7658;51.456;7.622;2023-12-20T09:46:54;17.83;;;10.43;;
15114;SDS011;7658;51.456;7.622;2023-12-20T09:49:21;21.80;;;9.87;;
15114;SDS011;7658;51.456;7.622;2023-12-20T09:51:47;21.17;;;10.80;;
15114;SDS011;7658;51.456;7.622;2023-12-20T09:54:19;35.33;;;10.73;;
15114;SDS011;7658;51.456;7.622;2023-12-20T09:56:46;14.80;;;9.37;;
15114;SDS011;7658;51.456;7.622;2023-12-20T09:59:12;23.67;;;10.60;;
15114;SDS011;7658;51.456;7.622;2023-12-20T10:01:40;13.43;;;9.43;;
15114;SDS011;7658;51.456;7.622;2023-12-20T10:04:08;25.13;;;10.17;;
15114;SDS011;7658;51.456;7.622;2023-12-20T10:06:43;20.90;;;10.20;;
15114;SDS011;7658;51.456;7.622;2023-12-20T10:09:09;23.77;;;9.70;;
15114;SDS011;7658;51.456;7.622;2023-12-20T10:11:39;19.33;;;9.03;;
15114;SDS011;7658;51.456;7.622;2023-12-20T10:14:05;17.33;;;8.43;;
15114;SDS011;7658;51.456;7.622;2023-12-20T10:16:32;18.83;;;9.70;;
15114;SDS011;7658;51.456;7.622;2023-12-20T10:18:59;16.33;;;9.57;;
15114;SDS011;7658;51.456;7.622;2023-12-20T10:21:29;22.33;;;9.33;;
15114;SDS011;7658;51.456;7.622;2023-12-20T10:23:55;14.47;;;8.27;;
15114;SDS011;7658;51.456;7.622;2023-12-20T10:26:23;22.80;;;8.87;;
15114;SDS011;7658;51.456;7.622;2023-12-20T10:28:54;21.50;;;9.53;;
15114;SDS011;7658;51.456;7.622;2023-12-20T10:31:29;16.37;;;8.47;;
15114;SDS011;7658;51.456;7.622;2023-12-20T10:33:56;21.87;;;9.37;;
15114;SDS011;7658;51.456;7.622;2023-12-20T10:36:24;21.77;;;9.07;;
15114;SDS011;7658;51.456;7.622;2023-12-20T10:38:54;21.43;;;10.13;;
15114;SDS011;7658;51.456;7.622;2023-12-20T10:41:30;21.03;;;8.60;;
15114;SDS011;7658;51.456;7.622;2023-12-20T10:44:01;18.93;;;8.90;;
15114;SDS011;7658;51.456;7.622;2023-12-20T10:46:30;19.80;;;8.90;;
15114;SDS011;7658;51.456;7.622;2023-12-20T10:48:57;22.70;;;10.23;;
15114;SDS011;7658;51.456;7.622;2023-12-20T10:51:24;22.63;;;9.47;;
15114;SDS011;7658;51.456;7.622;2023-12-20T10:53:55;21.37;;;9.73;;
15114;SDS011;7658;51.456;7.622;2023-12-20T10:56:21;22.70;;;9.83;;
15114;SDS011;7658;51.456;7.622;2023-12-20T10:58:48;23.90;;;9.97;;
15114;SDS011;7658;51.456;7.622;2023-12-20T11:01:18;20.93;;;9.67;;
15114;SDS011;7658;51.456;7.622;2023-12-20T11:03:49;17.93;;;10.00;;
15114;SDS011;7658;51.456;7.622;2023-12-20T11:09:25;22.77;;;10.50;;
15114;SDS011;7658;51.456;7.622;2023-12-20T11:14:29;22.37;;;10.37;;
15114;SDS011;7658;51.456;7.622;2023-12-20T11:17:05;21.60;;;10.53;;
15114;SDS011;7658;51.456;7.622;2023-12-20T11:19:43;19.00;;;10.23;;
15114;SDS011;7658;51.456;7.622;2023-12-20T11:22:24;22.80;;;9.97;;
15114;SDS011;7658;51.456;7.622;2023-12-20T11:24:51;20.57;;;9.03;;
15114;SDS011;7658;51.456;7.622;2023-12-20T11:27:18;25.77;;;10.70;;
15114;SDS011;7658;51.456;7.622;2023-12-20T11:29:56;16.40;;;9.97;;
15114;SDS011;7658;51.456;7.622;2023-12-20T11:34:53;26.77;;;10.13;;
15114;SDS011;7658;51.456;7.622;2023-12-20T11:37:20;16.13;;;9.83;;
15114;SDS011;7658;51.456;7.622;2023-12-20T11:39:54;17.27;;;10.90;;
15114;SDS011;7658;51.456;7.622;2023-12-20T11:42:21;22.83;;;10.77;;
15114;SDS011;7658;51.456;7.622;2023-12-20T11:44:47;18.13;;;10.03;;
15114;SDS011;7658;51.456;7.622;2023-12-20T11:47:13;20.47;;;11.63;;
15114;SDS011;7658;51.456;7.622;2023-12-20T11:49:40;27.20;;;10.60;;
15114;SDS011;7658;51.456;7.622;2023-12-20T11:52:06;20.53;;;10.10;;
15114;SDS011;7658;51.456;7.622;2023-12-20T11:54:32;16.63;;;10.10;;
15114;SDS011;7658;51.456;7.622;2023-12-20T11:56:58;23.73;;;10.43;;
15114;SDS011;7658;51.456;7.622;2023-12-20T11:59:24;18.53;;;10.13;;
15114;SDS011;7658;51.456;7.622;2023-12-20T12:01:50;19.77;;;10.50;;
15114;SDS011;7658;51.456;7.622;2023-12-20T12:04:16;21.20;;;10.67;;
15114;SDS011;7658;51.456;7.622;2023-12-20T12:06:45;21.80;;;12.57;;
15114;SDS011;7658;51.456;7.622;2023-12-20T12:09:11;25.27;;;12.77;;
15114;SDS011;7658;51.456;7.622;2023-12-20T12:11:37;25.30;;;11.60;;
15114;SDS011;7658;51.456;7.622;2023-12-20T12:14:03;19.93;;;11.10;;
15114;SDS011;7658;51.456;7.622;2023-12-20T12:16:29;23.80;;;10.97;;
15114;SDS011;7658;51.456;7.622;2023-12-20T12:18:58;16.37;;;11.00;;
15114;SDS011;7658;51.456;7.622;2023-12-20T12:21:24;24.63;;;11.60;;
15114;SDS011;7658;51.456;7.622;2023-12-20T12:23:50;23.27;;;13.20;;
15114;SDS011;7658;51.456;7.622;2023-12-20T12:26:16;19.90;;;10.73;;
15114;SDS011;7658;51.456;7.622;2023-12-20T12:28:42;23.10;;;11.77;;
15114;SDS011;7658;51.456;7.622;2023-12-20T12:31:14;18.10;;;11.13;;
15114;SDS011;7658;51.456;7.622;2023-12-20T12:33:42;21.40;;;11.80;;
15114;SDS011;7658;51.456;7.622;2023-12-20T12:36:09;24.50;;;10.73;;
15114;SDS011;7658;51.456;7.622;2023-12-20T12:38:36;20.00;;;11.40;;
15114;SDS011;7658;51.456;7.622;2023-12-20T12:41:02;22.53;;;10.40;;
15114;SDS011;7658;51.456;7.622;2023-12-20T12:43:28;20.30;;;11.27;;
15114;SDS011;7658;51.456;7.622;2023-12-20T12:45:54;17.17;;;10.60;;
15114;SDS011;7658;51.456;7.622;2023-12-20T12:48:20;20.37;;;10.93;;
15114;SDS011;7658;51.456;7.622;2023-12-20T12:50:46;24.00;;;10.83;;
15114;SDS011;7658;51.456;7.622;2023-12-20T12:53:12;17.20;;;11.50;;
15114;SDS011;7658;51.456;7.622;2023-12-20T12:55:37;18.10;;;10.33;;
15114;SDS011;7658;51.456;7.622;2023-12-20T12:58:03;25.23;;;11.90;;
15114;SDS011;7658;51.456;7.622;2023-12-20T13:00:29;27.43;;;12.03;;
15114;SDS011;7658;51.456;7.622;2023-12-20T13:02:55;19.10;;;10.60;;
15114;SDS011;7658;51.456;7.622;2023-12-20T13:05:21;23.37;;;11.20;;
15114;SDS011;7658;51.456;7.622;2023-12-20T13:07:47;21.57;;;10.87;;
15114;SDS011;7658;51.456;7.622;2023-12-20T13:10:12;24.03;;;11.00;;
15114;SDS011;7658;51.456;7.622;2023-12-20T13:12:41;23.07;;;11.53;;
15114;SDS011;7658;51.456;7.622;2023-12-20T13:15:07;22.40;;;11.20;;
15114;SDS011;7658;51.456;7.622;2023-12-20T13:17:34;20.33;;;11.57;;
15114;SDS011;7658;51.456;7.622;2023-12-20T13:20:00;18.97;;;11.50;;
15114;SDS011;7658;51.456;7.622;2023-12-20T13:22:25;20.77;;;10.53;;
15114;SDS011;7658;51.456;7.622;2023-12-20T13:24:51;17.10;;;11.17;;
15114;SDS011;7658;51.456;7.622;2023-12-20T13:27:17;23.13;;;10.17;;
15114;SDS011;7658;51.456;7.622;2023-12-20T13:29:43;18.90;;;10.80;;
15114;SDS011;7658;51.456;7.622;2023-12-20T13:32:09;16.90;;;10.33;;
15114;SDS011;7658;51.456;7.622;2023-12-20T13:34:34;18.90;;;10.87;;
15114;SDS011;7658;51.456;7.622;2023-12-20T13:37:00;22.47;;;10.03;;
15114;SDS011;7658;51.456;7.622;2023-12-20T13:39:26;16.13;;;9.47;;
15114;SDS011;7658;51.456;7.622;2023-12-20T13:41:52;18.17;;;10.43;;
15114;SDS011;7658;51.456;7.622;2023-12-20T13:44:18;29.03;;;12.03;;
15114;SDS011;7658;51.456;7.622;2023-12-20T13:46:44;17.40;;;11.73;;
15114;SDS011;7658;51.456;7.622;2023-12-20T13:49:11;21.53;;;11.97;;
15114;SDS011;7658;51.456;7.622;2023-12-20T13:51:37;20.83;;;14.33;;
15114;SDS011;7658;51.456;7.622;2023-12-20T13:54:03;19.10;;;11.27;;
15114;SDS011;7658;51.456;7.622;2023-12-20T13:56:29;28.57;;;11.63;;
15114;SDS011;7658;51.456;7.622;2023-12-20T13:58:55;20.60;;;10.87;;
15114;SDS011;7658;51.456;7.622;2023-12-20T14:01:21;16.30;;;10.20;;
15114;SDS011;7658;51.456;7.622;2023-12-20T14:03:48;17.70;;;10.13;;
15114;SDS011;7658;51.456;7.622;2023-12-20T14:06:13;13.77;;;10.73;;
15114;SDS011;7658;51.456;7.622;2023-12-20T14:08:40;25.10;;;10.90;;
15114;SDS011;7658;51.456;7.622;2023-12-20T14:11:06;15.10;;;10.20;;
15114;SDS011;7658;51.456;7.622;2023-12-20T14:13:32;15.27;;;9.60;;
15114;SDS011;7658;51.456;7.622;2023-12-20T14:15:58;16.50;;;8.80;;
15114;SDS011;7658;51.456;7.622;2023-12-20T14:18:25;13.53;;;9.80;;
15114;SDS011;7658;51.456;7.622;2023-12-20T14:20:51;20.03;;;9.43;;
15114;SDS011;7658;51.456;7.622;2023-12-20T14:23:17;18.53;;;10.03;;
15114;SDS011;7658;51.456;7.622;2023-12-20T14:25:43;12.17;;;10.00;;
15114;SDS011;7658;51.456;7.622;2023-12-20T14:28:09;17.07;;;9.50;;
15114;SDS011;7658;51.456;7.622;2023-12-20T14:30:37;15.93;;;9.90;;
15114;SDS011;7658;51.456;7.622;2023-12-20T14:33:03;17.80;;;9.37;;
15114;SDS011;7658;51.456;7.622;2023-12-20T14:35:29;12.93;;;8.73;;
15114;SDS011;7658;51.456;7.622;2023-12-20T14:37:55;12.07;;;9.63;;
15114;SDS011;7658;51.456;7.622;2023-12-20T14:40:21;12.70;;;9.27;;